sensor_id;sensor_type;location;lat;lon;timestamp;P1;durP1;ratioP1;P2;durP2;ratioP2
46481;SDS011;32193;51.446;6.792;2022-12-08T00:00:22;24.60;;;15.25;;
46481;SDS011;32193;51.446;6.792;2022-12-08T00:02:47;22.33;;;14.95;;
46481;SDS011;32193;51.446;6.792;2022-12-08T00:05:13;20.75;;;13.43;;
46481;SDS011;32193;51.446;6.792;2022-12-08T00:07:57;20.05;;;13.25;;
46481;SDS011;32193;51.446;6.792;2022-12-08T00:10:42;19.30;;;13.65;;
46481;SDS011;32193;51.446;6.792;2022-12-08T00:13:08;18.80;;;13.57;;
46481;SDS011;32193;51.446;6.792;2022-12-08T00:15:34;20.73;;;13.65;;
46481;SDS011;32193;51.446;6.792;2022-12-08T00:18:00;19.38;;;13.10;;
46481;SDS011;32193;51.446;6.792;2022-12-08T00:20:26;21.08;;;13.13;;
46481;SDS011;32193;51.446;6.792;2022-12-08T00:22:51;20.77;;;12.55;;
46481;SDS011;32193;51.446;6.792;2022-12-08T00:25:17;17.42;;;12.38;;
46481;SDS011;32193;51.446;6.792;2022-12-08T00:27:42;23.00;;;11.85;;
46481;SDS011;32193;51.446;6.792;2022-12-08T00:30:08;21.77;;;12.65;;
46481;SDS011;32193;51.446;6.792;2022-12-08T00:32:34;18.60;;;12.07;;
46481;SDS011;32193;51.446;6.792;2022-12-08T00:35:01;18.10;;;11.18;;
46481;SDS011;32193;51.446;6.792;2022-12-08T00:37:27;16.60;;;11.10;;
46481;SDS011;32193;51.446;6.792;2022-12-08T00:39:52;15.65;;;10.02;;
46481;SDS011;32193;51.446;6.792;2022-12-08T00:42:18;16.38;;;10.98;;
46481;SDS011;32193;51.446;6.792;2022-12-08T00:44:44;16.85;;;10.18;;
46481;SDS011;32193;51.446;6.792;2022-12-08T00:47:10;16.85;;;11.35;;
46481;SDS011;32193;51.446;6.792;2022-12-08T00:49:37;21.40;;;12.18;;
46481;SDS011;32193;51.446;6.792;2022-12-08T00:52:02;14.90;;;11.27;;
46481;SDS011;32193;51.446;6.792;2022-12-08T00:54:28;18.73;;;11.00;;
46481;SDS011;32193;51.446;6.792;2022-12-08T00:56:54;16.48;;;12.32;;
46481;SDS011;32193;51.446;6.792;2022-12-08T00:59:19;18.77;;;11.85;;
46481;SDS011;32193;51.446;6.792;2022-12-08T01:01:45;19.25;;;11.55;;
46481;SDS011;32193;51.446;6.792;2022-12-08T01:04:12;20.25;;;12.40;;
46481;SDS011;32193;51.446;6.792;2022-12-08T01:06:39;18.15;;;12.23;;
46481;SDS011;32193;51.446;6.792;2022-12-08T01:09:05;21.25;;;12.55;;
46481;SDS011;32193;51.446;6.792;2022-12-08T01:11:32;18.17;;;11.93;;
46481;SDS011;32193;51.446;6.792;2022-12-08T01:13:58;17.98;;;12.60;;
46481;SDS011;32193;51.446;6.792;2022-12-08T01:16:25;19.00;;;13.82;;
46481;SDS011;32193;51.446;6.792;2022-12-08T01:18:52;21.05;;;13.75;;
46481;SDS011;32193;51.446;6.792;2022-12-08T01:21:18;17.65;;;13.18;;
46481;SDS011;32193;51.446;6.792;2022-12-08T01:23:43;21.85;;;13.73;;
46481;SDS011;32193;51.446;6.792;2022-12-08T01:26:10;19.83;;;14.55;;
46481;SDS011;32193;51.446;6.792;2022-12-08T01:28:37;25.38;;;15.70;;
46481;SDS011;32193;51.446;6.792;2022-12-08T01:31:04;23.63;;;15.77;;
46481;SDS011;32193;51.446;6.792;2022-12-08T01:33:34;23.90;;;15.68;;
46481;SDS011;32193;51.446;6.792;2022-12-08T01:36:02;24.85;;;16.88;;
46481;SDS011;32193;51.446;6.792;2022-12-08T01:38:29;28.30;;;19.45;;
46481;SDS011;32193;51.446;6.792;2022-12-08T01:40:55;29.88;;;18.58;;
46481;SDS011;32193;51.446;6.792;2022-12-08T01:43:21;31.63;;;19.83;;
46481;SDS011;32193;51.446;6.792;2022-12-08T01:45:46;32.72;;;22.48;;
46481;SDS011;32193;51.446;6.792;2022-12-08T01:50:51;33.45;;;22.05;;
46481;SDS011;32193;51.446;6.792;2022-12-08T01:53:20;36.20;;;22.92;;
46481;SDS011;32193;51.446;6.792;2022-12-08T01:55:53;31.88;;;20.63;;
46481;SDS011;32193;51.446;6.792;2022-12-08T01:58:43;38.47;;;22.55;;
46481;SDS011;32193;51.446;6.792;2022-12-08T02:01:11;31.13;;;20.90;;
46481;SDS011;32193;51.446;6.792;2022-12-08T02:06:12;31.95;;;21.35;;
46481;SDS011;32193;51.446;6.792;2022-12-08T02:08:39;30.90;;;21.83;;
46481;SDS011;32193;51.446;6.792;2022-12-08T02:11:09;36.33;;;23.10;;
46481;SDS011;32193;51.446;6.792;2022-12-08T02:13:35;35.10;;;23.65;;
46481;SDS011;32193;51.446;6.792;2022-12-08T02:21:17;34.92;;;25.05;;
46481;SDS011;32193;51.446;6.792;2022-12-08T02:23:58;39.33;;;24.73;;
46481;SDS011;32193;51.446;6.792;2022-12-08T02:40:46;40.50;;;27.15;;
46481;SDS011;32193;51.446;6.792;2022-12-08T02:43:51;40.20;;;26.63;;
46481;SDS011;32193;51.446;6.792;2022-12-08T02:46:31;38.80;;;25.77;;
46481;SDS011;32193;51.446;6.792;2022-12-08T02:49:09;39.97;;;27.17;;
46481;SDS011;32193;51.446;6.792;2022-12-08T02:51:34;42.05;;;25.95;;
46481;SDS011;32193;51.446;6.792;2022-12-08T02:54:00;38.85;;;25.77;;
46481;SDS011;32193;51.446;6.792;2022-12-08T03:05:22;39.80;;;26.92;;
46481;SDS011;32193;51.446;6.792;2022-12-08T03:11:09;39.25;;;26.27;;
46481;SDS011;32193;51.446;6.792;2022-12-08T03:13:38;39.30;;;25.88;;
46481;SDS011;32193;51.446;6.792;2022-12-08T03:16:08;41.28;;;25.58;;
46481;SDS011;32193;51.446;6.792;2022-12-08T03:18:38;35.05;;;24.58;;
46481;SDS011;32193;51.446;6.792;2022-12-08T03:21:09;37.33;;;26.75;;
46481;SDS011;32193;51.446;6.792;2022-12-08T03:23:37;37.20;;;25.15;;
46481;SDS011;32193;51.446;6.792;2022-12-08T03:26:18;35.83;;;24.48;;
46481;SDS011;32193;51.446;6.792;2022-12-08T03:28:51;31.35;;;22.73;;
46481;SDS011;32193;51.446;6.792;2022-12-08T03:31:16;41.15;;;26.15;;
46481;SDS011;32193;51.446;6.792;2022-12-08T03:33:43;36.50;;;23.63;;
46481;SDS011;32193;51.446;6.792;2022-12-08T03:36:13;38.58;;;24.42;;
46481;SDS011;32193;51.446;6.792;2022-12-08T03:38:43;36.38;;;24.95;;
46481;SDS011;32193;51.446;6.792;2022-12-08T03:41:10;35.33;;;23.70;;
46481;SDS011;32193;51.446;6.792;2022-12-08T03:43:42;36.45;;;23.65;;
46481;SDS011;32193;51.446;6.792;2022-12-08T03:46:18;35.55;;;24.00;;
46481;SDS011;32193;51.446;6.792;2022-12-08T03:48:45;35.25;;;24.13;;
46481;SDS011;32193;51.446;6.792;2022-12-08T03:51:12;34.58;;;23.17;;
46481;SDS011;32193;51.446;6.792;2022-12-08T03:53:38;36.28;;;24.75;;
46481;SDS011;32193;51.446;6.792;2022-12-08T03:56:25;36.65;;;24.38;;
46481;SDS011;32193;51.446;6.792;2022-12-08T03:58:53;33.33;;;23.52;;
46481;SDS011;32193;51.446;6.792;2022-12-08T04:01:20;44.75;;;26.30;;
46481;SDS011;32193;51.446;6.792;2022-12-08T04:03:46;37.42;;;24.35;;
46481;SDS011;32193;51.446;6.792;2022-12-08T04:06:11;39.13;;;24.17;;
46481;SDS011;32193;51.446;6.792;2022-12-08T04:08:37;35.75;;;23.17;;
46481;SDS011;32193;51.446;6.792;2022-12-08T04:11:03;38.20;;;24.65;;
46481;SDS011;32193;51.446;6.792;2022-12-08T04:13:30;35.40;;;23.63;;
46481;SDS011;32193;51.446;6.792;2022-12-08T04:15:56;33.60;;;23.80;;
46481;SDS011;32193;51.446;6.792;2022-12-08T04:18:22;33.55;;;22.75;;
46481;SDS011;32193;51.446;6.792;2022-12-08T04:20:48;36.17;;;25.48;;
46481;SDS011;32193;51.446;6.792;2022-12-08T04:23:13;32.35;;;22.77;;
46481;SDS011;32193;51.446;6.792;2022-12-08T04:25:39;31.67;;;21.67;;
46481;SDS011;32193;51.446;6.792;2022-12-08T04:28:04;33.08;;;22.52;;
46481;SDS011;32193;51.446;6.792;2022-12-08T04:30:30;30.83;;;21.55;;
46481;SDS011;32193;51.446;6.792;2022-12-08T04:32:56;29.65;;;21.45;;
46481;SDS011;32193;51.446;6.792;2022-12-08T04:35:22;32.55;;;21.98;;
46481;SDS011;32193;51.446;6.792;2022-12-08T04:37:48;30.75;;;22.05;;
46481;SDS011;32193;51.446;6.792;2022-12-08T04:40:13;36.38;;;25.23;;
46481;SDS011;32193;51.446;6.792;2022-12-08T04:42:39;30.42;;;22.70;;
46481;SDS011;32193;51.446;6.792;2022-12-08T04:45:05;28.40;;;20.17;;
46481;SDS011;32193;51.446;6.792;2022-12-08T04:47:31;31.52;;;21.55;;
46481;SDS011;32193;51.446;6.792;2022-12-08T04:49:57;29.08;;;20.42;;
46481;SDS011;32193;51.446;6.792;2022-12-08T04:52:23;27.27;;;19.30;;
46481;SDS011;32193;51.446;6.792;2022-12-08T04:54:48;29.25;;;19.98;;
46481;SDS011;32193;51.446;6.792;2022-12-08T04:57:14;27.05;;;19.40;;
46481;SDS011;32193;51.446;6.792;2022-12-08T04:59:39;26.92;;;20.27;;
46481;SDS011;32193;51.446;6.792;2022-12-08T05:02:05;27.77;;;18.58;;
46481;SDS011;32193;51.446;6.792;2022-12-08T05:04:31;68.53;;;43.38;;
46481;SDS011;32193;51.446;6.792;2022-12-08T05:06:56;29.83;;;19.95;;
46481;SDS011;32193;51.446;6.792;2022-12-08T05:09:22;24.88;;;19.02;;
46481;SDS011;32193;51.446;6.792;2022-12-08T05:11:47;27.02;;;17.98;;
46481;SDS011;32193;51.446;6.792;2022-12-08T05:14:13;26.83;;;18.88;;
46481;SDS011;32193;51.446;6.792;2022-12-08T05:16:40;27.08;;;19.55;;
46481;SDS011;32193;51.446;6.792;2022-12-08T05:19:07;58.03;;;20.02;;
46481;SDS011;32193;51.446;6.792;2022-12-08T05:21:32;28.60;;;19.25;;
46481;SDS011;32193;51.446;6.792;2022-12-08T05:23:58;30.85;;;19.48;;
46481;SDS011;32193;51.446;6.792;2022-12-08T05:26:24;25.33;;;17.45;;
46481;SDS011;32193;51.446;6.792;2022-12-08T05:28:49;27.85;;;19.13;;
46481;SDS011;32193;51.446;6.792;2022-12-08T05:31:15;26.90;;;19.42;;
46481;SDS011;32193;51.446;6.792;2022-12-08T05:33:42;26.38;;;19.13;;
46481;SDS011;32193;51.446;6.792;2022-12-08T05:36:09;30.02;;;18.77;;
46481;SDS011;32193;51.446;6.792;2022-12-08T05:38:36;26.27;;;20.20;;
46481;SDS011;32193;51.446;6.792;2022-12-08T05:41:02;25.77;;;18.92;;
46481;SDS011;32193;51.446;6.792;2022-12-08T05:43:30;26.30;;;18.00;;
46481;SDS011;32193;51.446;6.792;2022-12-08T05:45:55;23.63;;;17.75;;
46481;SDS011;32193;51.446;6.792;2022-12-08T05:48:21;26.27;;;18.27;;
46481;SDS011;32193;51.446;6.792;2022-12-08T05:50:47;23.80;;;16.67;;
46481;SDS011;32193;51.446;6.792;2022-12-08T05:53:13;24.67;;;17.92;;
46481;SDS011;32193;51.446;6.792;2022-12-08T05:55:39;28.63;;;18.08;;
46481;SDS011;32193;51.446;6.792;2022-12-08T05:58:05;25.40;;;18.15;;
46481;SDS011;32193;51.446;6.792;2022-12-08T06:00:33;28.23;;;19.17;;
46481;SDS011;32193;51.446;6.792;2022-12-08T06:02:59;26.27;;;18.75;;
46481;SDS011;32193;51.446;6.792;2022-12-08T06:05:25;28.45;;;19.17;;
46481;SDS011;32193;51.446;6.792;2022-12-08T06:07:50;30.20;;;20.08;;
46481;SDS011;32193;51.446;6.792;2022-12-08T06:10:16;31.13;;;21.00;;
46481;SDS011;32193;51.446;6.792;2022-12-08T06:12:42;30.30;;;19.55;;
46481;SDS011;32193;51.446;6.792;2022-12-08T06:15:07;27.05;;;19.92;;
46481;SDS011;32193;51.446;6.792;2022-12-08T06:17:33;28.13;;;18.75;;
46481;SDS011;32193;51.446;6.792;2022-12-08T06:19:59;31.02;;;20.40;;
46481;SDS011;32193;51.446;6.792;2022-12-08T06:22:24;30.08;;;21.02;;
46481;SDS011;32193;51.446;6.792;2022-12-08T06:24:50;29.45;;;20.70;;
46481;SDS011;32193;51.446;6.792;2022-12-08T06:27:16;32.63;;;19.95;;
46481;SDS011;32193;51.446;6.792;2022-12-08T06:29:41;33.97;;;21.33;;
46481;SDS011;32193;51.446;6.792;2022-12-08T06:32:07;29.80;;;20.05;;
46481;SDS011;32193;51.446;6.792;2022-12-08T06:34:32;35.40;;;20.80;;
46481;SDS011;32193;51.446;6.792;2022-12-08T06:36:58;36.78;;;20.60;;
46481;SDS011;32193;51.446;6.792;2022-12-08T06:39:23;33.30;;;20.98;;
46481;SDS011;32193;51.446;6.792;2022-12-08T06:41:49;37.55;;;21.27;;
46481;SDS011;32193;51.446;6.792;2022-12-08T06:44:33;33.42;;;19.65;;
46481;SDS011;32193;51.446;6.792;2022-12-08T06:46:59;29.13;;;20.25;;
46481;SDS011;32193;51.446;6.792;2022-12-08T06:49:24;34.10;;;19.13;;
46481;SDS011;32193;51.446;6.792;2022-12-08T06:51:50;29.25;;;18.73;;
46481;SDS011;32193;51.446;6.792;2022-12-08T06:54:15;29.85;;;18.30;;
46481;SDS011;32193;51.446;6.792;2022-12-08T06:56:41;27.65;;;17.98;;
46481;SDS011;32193;51.446;6.792;2022-12-08T06:59:06;29.15;;;18.23;;
46481;SDS011;32193;51.446;6.792;2022-12-08T07:01:32;28.40;;;18.77;;
46481;SDS011;32193;51.446;6.792;2022-12-08T07:03:57;28.88;;;19.17;;
46481;SDS011;32193;51.446;6.792;2022-12-08T07:06:23;29.05;;;18.38;;
46481;SDS011;32193;51.446;6.792;2022-12-08T07:08:49;27.85;;;17.55;;
46481;SDS011;32193;51.446;6.792;2022-12-08T07:11:16;28.20;;;18.02;;
46481;SDS011;32193;51.446;6.792;2022-12-08T07:13:41;29.33;;;19.27;;
46481;SDS011;32193;51.446;6.792;2022-12-08T07:16:08;29.00;;;18.48;;
46481;SDS011;32193;51.446;6.792;2022-12-08T07:18:34;29.77;;;18.60;;
46481;SDS011;32193;51.446;6.792;2022-12-08T07:23:30;28.58;;;17.25;;
46481;SDS011;32193;51.446;6.792;2022-12-08T07:25:58;26.20;;;17.27;;
46481;SDS011;32193;51.446;6.792;2022-12-08T07:28:25;26.08;;;17.00;;
46481;SDS011;32193;51.446;6.792;2022-12-08T07:30:50;37.60;;;20.88;;
46481;SDS011;32193;51.446;6.792;2022-12-08T07:33:16;47.95;;;25.02;;
46481;SDS011;32193;51.446;6.792;2022-12-08T07:35:41;50.60;;;25.92;;
46481;SDS011;32193;51.446;6.792;2022-12-08T07:38:09;40.40;;;19.45;;
46481;SDS011;32193;51.446;6.792;2022-12-08T07:40:34;24.48;;;17.10;;
46481;SDS011;32193;51.446;6.792;2022-12-08T07:43:02;25.77;;;16.80;;
46481;SDS011;32193;51.446;6.792;2022-12-08T07:45:27;26.95;;;14.90;;
46481;SDS011;32193;51.446;6.792;2022-12-08T07:47:53;19.48;;;12.55;;
46481;SDS011;32193;51.446;6.792;2022-12-08T07:50:18;21.45;;;14.20;;
46481;SDS011;32193;51.446;6.792;2022-12-08T07:52:44;22.20;;;12.52;;
46481;SDS011;32193;51.446;6.792;2022-12-08T07:55:09;19.88;;;12.55;;
46481;SDS011;32193;51.446;6.792;2022-12-08T07:57:35;20.70;;;12.20;;
46481;SDS011;32193;51.446;6.792;2022-12-08T08:00:01;18.55;;;12.20;;
46481;SDS011;32193;51.446;6.792;2022-12-08T08:02:29;19.02;;;12.35;;
46481;SDS011;32193;51.446;6.792;2022-12-08T08:04:54;20.15;;;12.85;;
46481;SDS011;32193;51.446;6.792;2022-12-08T08:07:20;17.95;;;12.60;;
46481;SDS011;32193;51.446;6.792;2022-12-08T08:09:45;19.60;;;13.15;;
46481;SDS011;32193;51.446;6.792;2022-12-08T08:12:11;21.60;;;13.65;;
46481;SDS011;32193;51.446;6.792;2022-12-08T08:14:36;24.60;;;14.60;;
46481;SDS011;32193;51.446;6.792;2022-12-08T08:17:02;18.55;;;12.35;;
46481;SDS011;32193;51.446;6.792;2022-12-08T08:19:28;21.50;;;12.90;;
46481;SDS011;32193;51.446;6.792;2022-12-08T08:21:53;20.83;;;13.68;;
46481;SDS011;32193;51.446;6.792;2022-12-08T08:24:19;19.88;;;12.75;;
46481;SDS011;32193;51.446;6.792;2022-12-08T08:26:46;19.55;;;12.23;;
46481;SDS011;32193;51.446;6.792;2022-12-08T08:29:11;18.20;;;11.63;;
46481;SDS011;32193;51.446;6.792;2022-12-08T08:31:37;16.08;;;12.00;;
46481;SDS011;32193;51.446;6.792;2022-12-08T08:34:02;18.38;;;11.38;;
46481;SDS011;32193;51.446;6.792;2022-12-08T08:36:30;19.30;;;11.95;;
46481;SDS011;32193;51.446;6.792;2022-12-08T08:38:56;22.08;;;12.73;;
46481;SDS011;32193;51.446;6.792;2022-12-08T08:41:21;20.30;;;11.77;;
46481;SDS011;32193;51.446;6.792;2022-12-08T08:43:47;19.48;;;11.75;;
46481;SDS011;32193;51.446;6.792;2022-12-08T08:46:12;20.80;;;11.90;;
46481;SDS011;32193;51.446;6.792;2022-12-08T08:48:38;22.52;;;12.93;;
46481;SDS011;32193;51.446;6.792;2022-12-08T08:51:11;23.48;;;15.50;;
46481;SDS011;32193;51.446;6.792;2022-12-08T08:53:38;23.13;;;13.48;;
46481;SDS011;32193;51.446;6.792;2022-12-08T08:56:08;19.42;;;13.05;;
46481;SDS011;32193;51.446;6.792;2022-12-08T08:58:35;22.38;;;13.43;;
46481;SDS011;32193;51.446;6.792;2022-12-08T09:01:00;18.23;;;12.55;;
46481;SDS011;32193;51.446;6.792;2022-12-08T09:03:26;20.38;;;14.43;;
46481;SDS011;32193;51.446;6.792;2022-12-08T09:05:51;20.30;;;14.23;;
46481;SDS011;32193;51.446;6.792;2022-12-08T09:08:18;23.17;;;15.20;;
46481;SDS011;32193;51.446;6.792;2022-12-08T09:10:44;23.15;;;15.27;;
46481;SDS011;32193;51.446;6.792;2022-12-08T09:13:10;25.25;;;16.90;;
46481;SDS011;32193;51.446;6.792;2022-12-08T09:15:35;23.90;;;16.90;;
46481;SDS011;32193;51.446;6.792;2022-12-08T09:18:01;27.48;;;18.67;;
46481;SDS011;32193;51.446;6.792;2022-12-08T09:20:26;25.42;;;18.48;;
46481;SDS011;32193;51.446;6.792;2022-12-08T09:22:52;36.40;;;20.05;;
46481;SDS011;32193;51.446;6.792;2022-12-08T09:25:18;29.58;;;20.75;;
46481;SDS011;32193;51.446;6.792;2022-12-08T09:27:43;28.95;;;20.63;;
46481;SDS011;32193;51.446;6.792;2022-12-08T09:30:09;34.63;;;21.45;;
46481;SDS011;32193;51.446;6.792;2022-12-08T09:32:34;32.13;;;23.98;;
46481;SDS011;32193;51.446;6.792;2022-12-08T09:35:00;34.13;;;22.02;;
46481;SDS011;32193;51.446;6.792;2022-12-08T09:37:25;34.25;;;23.23;;
46481;SDS011;32193;51.446;6.792;2022-12-08T09:39:51;40.70;;;24.42;;
46481;SDS011;32193;51.446;6.792;2022-12-08T09:42:27;38.03;;;24.92;;
46481;SDS011;32193;51.446;6.792;2022-12-08T09:45:11;47.03;;;25.93;;
46481;SDS011;32193;51.446;6.792;2022-12-08T09:47:40;32.42;;;22.60;;
46481;SDS011;32193;51.446;6.792;2022-12-08T09:53:28;35.85;;;23.15;;
46481;SDS011;32193;51.446;6.792;2022-12-08T09:55:45;31.48;;;21.35;;
46481;SDS011;32193;51.446;6.792;2022-12-08T09:58:20;31.52;;;21.25;;
46481;SDS011;32193;51.446;6.792;2022-12-08T10:00:56;31.38;;;22.25;;
46481;SDS011;32193;51.446;6.792;2022-12-08T10:03:23;37.58;;;23.15;;
46481;SDS011;32193;51.446;6.792;2022-12-08T10:06:37;28.55;;;20.17;;
46481;SDS011;32193;51.446;6.792;2022-12-08T10:08:46;28.65;;;20.23;;
46481;SDS011;32193;51.446;6.792;2022-12-08T10:11:15;26.10;;;17.77;;
46481;SDS011;32193;51.446;6.792;2022-12-08T10:13:51;24.38;;;17.35;;
46481;SDS011;32193;51.446;6.792;2022-12-08T10:16:37;24.90;;;17.73;;
46481;SDS011;32193;51.446;6.792;2022-12-08T10:19:17;23.15;;;15.77;;
46481;SDS011;32193;51.446;6.792;2022-12-08T10:21:47;23.58;;;16.38;;
46481;SDS011;32193;51.446;6.792;2022-12-08T10:24:19;23.83;;;16.77;;
46481;SDS011;32193;51.446;6.792;2022-12-08T10:26:58;26.40;;;17.60;;
46481;SDS011;32193;51.446;6.792;2022-12-08T10:29:25;25.45;;;18.25;;
46481;SDS011;32193;51.446;6.792;2022-12-08T10:31:51;31.42;;;18.83;;
46481;SDS011;32193;51.446;6.792;2022-12-08T10:36:44;24.20;;;18.02;;
46481;SDS011;32193;51.446;6.792;2022-12-08T10:44:47;28.45;;;19.48;;
46481;SDS011;32193;51.446;6.792;2022-12-08T10:47:22;28.88;;;20.25;;
46481;SDS011;32193;51.446;6.792;2022-12-08T10:50:11;50.78;;;32.63;;
46481;SDS011;32193;51.446;6.792;2022-12-08T10:52:53;47.17;;;27.55;;
46481;SDS011;32193;51.446;6.792;2022-12-08T10:55:22;32.85;;;21.98;;
46481;SDS011;32193;51.446;6.792;2022-12-08T10:57:48;27.92;;;21.42;;
46481;SDS011;32193;51.446;6.792;2022-12-08T11:00:14;28.75;;;21.50;;
46481;SDS011;32193;51.446;6.792;2022-12-08T11:02:49;32.97;;;21.42;;
46481;SDS011;32193;51.446;6.792;2022-12-08T11:05:17;33.38;;;21.67;;
46481;SDS011;32193;51.446;6.792;2022-12-08T11:07:46;34.08;;;22.52;;
46481;SDS011;32193;51.446;6.792;2022-12-08T11:10:18;32.35;;;21.98;;
46481;SDS011;32193;51.446;6.792;2022-12-08T11:12:50;36.45;;;22.55;;
46481;SDS011;32193;51.446;6.792;2022-12-08T11:15:16;30.42;;;21.77;;
46481;SDS011;32193;51.446;6.792;2022-12-08T11:17:42;32.15;;;22.88;;
46481;SDS011;32193;51.446;6.792;2022-12-08T11:22:41;40.70;;;26.02;;
46481;SDS011;32193;51.446;6.792;2022-12-08T11:27:45;38.53;;;23.77;;
46481;SDS011;32193;51.446;6.792;2022-12-08T11:30:20;36.88;;;23.92;;
46481;SDS011;32193;51.446;6.792;2022-12-08T11:32:53;39.80;;;24.48;;
46481;SDS011;32193;51.446;6.792;2022-12-08T11:35:26;34.13;;;23.55;;
46481;SDS011;32193;51.446;6.792;2022-12-08T11:37:56;33.00;;;23.05;;
46481;SDS011;32193;51.446;6.792;2022-12-08T11:40:39;34.75;;;23.90;;
46481;SDS011;32193;51.446;6.792;2022-12-08T11:43:12;33.78;;;23.45;;
46481;SDS011;32193;51.446;6.792;2022-12-08T11:46:00;37.25;;;24.13;;
46481;SDS011;32193;51.446;6.792;2022-12-08T11:48:30;35.58;;;22.75;;
46481;SDS011;32193;51.446;6.792;2022-12-08T11:51:11;39.08;;;23.98;;
46481;SDS011;32193;51.446;6.792;2022-12-08T11:54:00;33.20;;;23.42;;
46481;SDS011;32193;51.446;6.792;2022-12-08T11:56:47;34.42;;;24.17;;
46481;SDS011;32193;51.446;6.792;2022-12-08T12:01:53;32.60;;;24.13;;
46481;SDS011;32193;51.446;6.792;2022-12-08T12:04:26;20.92;;;15.90;;
46481;SDS011;32193;51.446;6.792;2022-12-08T12:09:47;18.88;;;12.02;;
46481;SDS011;32193;51.446;6.792;2022-12-08T12:12:40;16.88;;;10.55;;
46481;SDS011;32193;51.446;6.792;2022-12-08T12:18:12;14.55;;;10.38;;
46481;SDS011;32193;51.446;6.792;2022-12-08T12:20:56;16.25;;;12.00;;
46481;SDS011;32193;51.446;6.792;2022-12-08T12:25:57;15.57;;;12.07;;
46481;SDS011;32193;51.446;6.792;2022-12-08T12:28:26;17.40;;;12.75;;
46481;SDS011;32193;51.446;6.792;2022-12-08T12:31:05;18.05;;;11.80;;
46481;SDS011;32193;51.446;6.792;2022-12-08T12:33:33;13.38;;;11.02;;
46481;SDS011;32193;51.446;6.792;2022-12-08T12:36:01;15.77;;;11.48;;
46481;SDS011;32193;51.446;6.792;2022-12-08T12:38:36;17.35;;;12.18;;
46481;SDS011;32193;51.446;6.792;2022-12-08T12:47:00;16.30;;;12.18;;
46481;SDS011;32193;51.446;6.792;2022-12-08T12:55:17;15.98;;;12.73;;
46481;SDS011;32193;51.446;6.792;2022-12-08T12:57:38;16.10;;;11.82;;
46481;SDS011;32193;51.446;6.792;2022-12-08T13:00:22;16.02;;;12.27;;
46481;SDS011;32193;51.446;6.792;2022-12-08T13:02:49;15.80;;;11.70;;
46481;SDS011;32193;51.446;6.792;2022-12-08T13:05:18;17.48;;;12.73;;
46481;SDS011;32193;51.446;6.792;2022-12-08T13:07:48;18.23;;;12.82;;
46481;SDS011;32193;51.446;6.792;2022-12-08T13:13:02;17.88;;;13.10;;
46481;SDS011;32193;51.446;6.792;2022-12-08T13:18:20;18.42;;;11.93;;
46481;SDS011;32193;51.446;6.792;2022-12-08T13:21:12;17.65;;;13.00;;
46481;SDS011;32193;51.446;6.792;2022-12-08T13:23:41;20.70;;;14.75;;
46481;SDS011;32193;51.446;6.792;2022-12-08T13:34:04;31.05;;;20.90;;
46481;SDS011;32193;51.446;6.792;2022-12-08T13:36:32;73.80;;;41.25;;
46481;SDS011;32193;51.446;6.792;2022-12-08T13:39:02;61.08;;;32.85;;
46481;SDS011;32193;51.446;6.792;2022-12-08T13:41:33;31.02;;;20.65;;
46481;SDS011;32193;51.446;6.792;2022-12-08T13:44:08;20.20;;;13.60;;
46481;SDS011;32193;51.446;6.792;2022-12-08T13:46:48;26.80;;;13.02;;
46481;SDS011;32193;51.446;6.792;2022-12-08T13:49:17;16.92;;;12.82;;
46481;SDS011;32193;51.446;6.792;2022-12-08T13:51:50;18.92;;;12.90;;
46481;SDS011;32193;51.446;6.792;2022-12-08T13:54:34;20.73;;;14.45;;
46481;SDS011;32193;51.446;6.792;2022-12-08T13:57:05;20.00;;;14.38;;
46481;SDS011;32193;51.446;6.792;2022-12-08T13:59:32;19.70;;;12.82;;
46481;SDS011;32193;51.446;6.792;2022-12-08T14:02:15;20.90;;;14.02;;
46481;SDS011;32193;51.446;6.792;2022-12-08T14:04:53;19.10;;;14.10;;
46481;SDS011;32193;51.446;6.792;2022-12-08T14:07:21;21.73;;;14.15;;
46481;SDS011;32193;51.446;6.792;2022-12-08T14:09:47;25.13;;;15.07;;
46481;SDS011;32193;51.446;6.792;2022-12-08T14:14:42;21.65;;;14.07;;
46481;SDS011;32193;51.446;6.792;2022-12-08T14:17:13;18.00;;;12.57;;
46481;SDS011;32193;51.446;6.792;2022-12-08T14:19:42;22.73;;;14.05;;
46481;SDS011;32193;51.446;6.792;2022-12-08T14:24:36;18.80;;;13.10;;
46481;SDS011;32193;51.446;6.792;2022-12-08T14:27:02;24.23;;;14.13;;
46481;SDS011;32193;51.446;6.792;2022-12-08T14:34:52;18.58;;;11.82;;
46481;SDS011;32193;51.446;6.792;2022-12-08T14:37:34;18.67;;;13.18;;
46481;SDS011;32193;51.446;6.792;2022-12-08T14:42:49;20.85;;;12.27;;
46481;SDS011;32193;51.446;6.792;2022-12-08T14:45:16;17.50;;;12.02;;
46481;SDS011;32193;51.446;6.792;2022-12-08T14:47:43;18.80;;;13.20;;
46481;SDS011;32193;51.446;6.792;2022-12-08T14:53:19;18.20;;;13.68;;
46481;SDS011;32193;51.446;6.792;2022-12-08T14:55:45;20.33;;;13.63;;
46481;SDS011;32193;51.446;6.792;2022-12-08T14:58:16;19.75;;;14.13;;
46481;SDS011;32193;51.446;6.792;2022-12-08T15:00:54;20.40;;;13.95;;
46481;SDS011;32193;51.446;6.792;2022-12-08T15:03:22;20.67;;;14.00;;
46481;SDS011;32193;51.446;6.792;2022-12-08T15:05:56;19.92;;;13.73;;
46481;SDS011;32193;51.446;6.792;2022-12-08T15:13:47;22.60;;;14.73;;
46481;SDS011;32193;51.446;6.792;2022-12-08T15:16:26;17.95;;;13.88;;
46481;SDS011;32193;51.446;6.792;2022-12-08T15:21:48;22.70;;;14.15;;
46481;SDS011;32193;51.446;6.792;2022-12-08T15:24:15;17.65;;;13.48;;
46481;SDS011;32193;51.446;6.792;2022-12-08T15:26:45;18.70;;;14.10;;
46481;SDS011;32193;51.446;6.792;2022-12-08T15:29:23;22.58;;;14.52;;
46481;SDS011;32193;51.446;6.792;2022-12-08T15:31:54;23.92;;;15.57;;
46481;SDS011;32193;51.446;6.792;2022-12-08T15:34:21;21.83;;;15.35;;
46481;SDS011;32193;51.446;6.792;2022-12-08T15:36:51;24.33;;;15.65;;
46481;SDS011;32193;51.446;6.792;2022-12-08T15:39:20;25.58;;;16.30;;
46481;SDS011;32193;51.446;6.792;2022-12-08T15:42:02;21.43;;;15.53;;
46481;SDS011;32193;51.446;6.792;2022-12-08T15:44:30;22.73;;;17.02;;
46481;SDS011;32193;51.446;6.792;2022-12-08T15:46:57;24.38;;;18.88;;
46481;SDS011;32193;51.446;6.792;2022-12-08T15:49:23;22.42;;;15.80;;
46481;SDS011;32193;51.446;6.792;2022-12-08T15:51:49;27.15;;;17.70;;
46481;SDS011;32193;51.446;6.792;2022-12-08T15:54:16;22.60;;;15.48;;
46481;SDS011;32193;51.446;6.792;2022-12-08T15:56:46;23.00;;;16.58;;
46481;SDS011;32193;51.446;6.792;2022-12-08T15:59:19;23.48;;;15.93;;
46481;SDS011;32193;51.446;6.792;2022-12-08T16:01:46;30.73;;;19.23;;
46481;SDS011;32193;51.446;6.792;2022-12-08T16:04:13;25.20;;;18.35;;
46481;SDS011;32193;51.446;6.792;2022-12-08T16:06:41;22.70;;;16.55;;
46481;SDS011;32193;51.446;6.792;2022-12-08T16:09:16;25.48;;;16.95;;
46481;SDS011;32193;51.446;6.792;2022-12-08T16:11:44;25.95;;;17.30;;
46481;SDS011;32193;51.446;6.792;2022-12-08T16:16:54;25.40;;;17.73;;
46481;SDS011;32193;51.446;6.792;2022-12-08T16:19:20;28.58;;;18.63;;
46481;SDS011;32193;51.446;6.792;2022-12-08T16:21:46;24.70;;;18.40;;
46481;SDS011;32193;51.446;6.792;2022-12-08T16:24:11;24.98;;;17.30;;
46481;SDS011;32193;51.446;6.792;2022-12-08T16:26:37;31.88;;;19.02;;
46481;SDS011;32193;51.446;6.792;2022-12-08T16:29:03;26.60;;;18.85;;